Aloha, OR

8:14 AM PDT on October 30, 2014 (GMT -0700)
Longacre Park | Change Station
CLOSE
Current Station
Personal Weather Station
Location: Beaverton, OR
Elevation: 179 ft
Nearby Weather Stations

Elev 179 ft 45.51 °N, 122.87 °W | Updated 8 seconds ago

Rain
Rain
55.2 °F
Feels Like 55.2 °F
N
0.0
Wind Variable Wind from South
Gusts 0.0 mph

Today
High -- | Low -- °F
--% Chance of Precip.
Yesterday
High -- | Low -- °F
Precip. -- in
7:48 AM 6:01 PM
Waxing Crescent, 44% visible
Pressure 29.89 in
Visibility 10.0 miles
Clouds Few 5000 ft
Few 7500 ft
Overcast 10000 ft
Dew Point 55 °F
Humidity 98%
Rainfall 0.05 in
Snow Depth Not available.
UV 0 out of 12
Pollen .40 out of 12
Air Quality Not available.
Flu Activity Not available.
METAR KHIO 301453Z 00000KT 10SM -RA FEW050 FEW075 OVC100 13/12 A2989 RMK AO2 SLP120 P0010 60011 T01280122 58005

More Conditions Fewer Conditions

Pressure 29.89 in
Visibility 10.0 miles
Clouds Few 5000 ft
Few 7500 ft
Overcast 10000 ft
Dew Point 55 °F
Humidity 98%
Rainfall 0.05 in
Snow Depth Not available.
UV 0 out of 12
Pollen .40 out of 12
Air Quality Not available.
Flu Activity Not available.
METAR KHIO 301453Z 00000KT 10SM -RA FEW050 FEW075 OVC100 13/12 A2989 RMK AO2 SLP120 P0010 60011 T01280122 58005

More Conditions Fewer Conditions

10-Day Weather Forecast

Almanac

Astronomy

Oct. 30, 2014 Rise Set
Actual Time
Civil Twilight
Nautical Twilight
Astronomical Twilight
Moon
Length of Visible Light
Length of Day
Tomorrow will be .
, % of the Moon is Illuminated

Today's Extremes

State Highs State Lows

Community

WunderPhotos

Upload Photos

1,766,387 photos uploaded!

WunderBlogs® & News

Nearby

Air Quality

  Air Quality AQ Index Pollutant
Not available.

Snow Depth

Station Depth Elevation

Earthquake Activity

City Distance Mag. Time & Date
Minimum magnitude displayed is 2.5.

Coastal Water Temperatures

Place Temperature

Nearby Weather Stations